Time;durP1;ratioP1;P1;durP2;ratioP2;P2;SDS_P1;SDS_P2;PMS_P1;PMS_P2;Temp;Humidity;BMP_temperature;BMP_pressure;BME280_temperature;BME280_humidity;BME280_pressure;Samples;Min_cycle;Max_cycle;Signal;HPM_P1;HPM_P2
2023/08/27 00:01:20;;;;;;;;;;;;;;;;;;6215864;23;20461;-95
2023/08/27 00:03:49;;;;;;;;;;;;;;;;;;6215687;23;19919;-95
2023/08/27 00:06:15;;;;;;;;;;;;;;;;;;6216087;23;20015;-95
2023/08/27 00:08:41;;;;;;;;;;;;;;;;;;6216028;23;19920;-95
2023/08/27 00:11:07;;;;;;;;;;;;;;;;;;6214510;23;19960;-95
2023/08/27 00:13:33;;;;;;;;;;;;;;;;;;6191788;23;19919;-95
2023/08/27 00:16:02;;;;;;;;;;;;;;;;;;6214859;23;20007;-95
2023/08/27 00:18:30;;;;;;;;;;;;;;;;;;6215430;23;20397;-95
2023/08/27 00:20:59;;;;;;;;;;;;;;;;;;6213797;23;19927;-95
2023/08/27 00:23:25;;;;;;;;;;;;;;;;;;6215496;23;20323;-95
2023/08/27 00:25:51;;;;;;;;;;;;;;;;;;6215153;23;19943;-95
2023/08/27 00:28:20;;;;;;;;;;;;;;;;;;6215367;23;19930;-95
2023/08/27 00:30:48;;;;;;;;;;;;;;;;;;6217160;23;19920;-95
2023/08/27 00:33:14;;;;;;;;;;;;;;;;;;6213941;23;19919;-95
2023/08/27 00:35:42;;;;;;;;;;;;;;;;;;6214951;23;19969;-95
2023/08/27 00:38:08;;;;;;;;;;;;;;;;;;6215035;23;19915;-95
2023/08/27 00:40:37;;;;;;;;;;;;;;;;;;6215397;23;19994;-95
2023/08/27 00:43:03;;;;;;;;;;;;;;;;;;6213721;23;19915;-95
2023/08/27 00:45:29;;;;;;;;;;;;;;;;;;6214902;23;19919;-95
2023/08/27 00:47:55;;;;;;;;;;;;;;;;;;6213594;23;19930;-95
2023/08/27 00:50:28;;;;;;;;;;;;;;;;;;6212018;23;19958;-95
2023/08/27 00:52:54;;;;;;;;;;;;;;;;;;6239321;23;19951;-95
2023/08/27 00:55:23;;;;;;;;;;;;;;;;;;6215554;23;19923;-94
2023/08/27 00:57:49;;;;;;;;;;;;;;;;;;6239918;23;19919;-95
2023/08/27 01:00:15;;;;;;;;;;;;;;;;;;6214144;23;20041;-95
2023/08/27 01:02:43;;;;;;;;;;;;;;;;;;6237562;23;20009;-95
2023/08/27 01:05:09;;;;;;;;;;;;;;;;;;6213203;23;19967;-95
2023/08/27 01:07:35;;;;;;;;;;;;;;;;;;6213387;23;19963;-94
2023/08/27 01:10:01;;;;;;;;;;;;;;;;;;6214415;23;20347;-96
2023/08/27 01:12:27;;;;;;;;;;;;;;;;;;6213743;23;19923;-94
2023/08/27 01:14:53;;;;;;;;;;;;;;;;;;6213645;23;19919;-95
2023/08/27 01:17:19;;;;;;;;;;;;;;;;;;6213336;23;19958;-95
2023/08/27 01:19:45;;;;;;;;;;;;;;;;;;6214215;23;19950;-94
2023/08/27 01:22:11;;;;;;;;;;;;;;;;;;6213255;23;19920;-95
2023/08/27 01:24:37;;;;;;;;;;;;;;;;;;6212974;23;20272;-95
2023/08/27 01:27:03;;;;;;;;;;;;;;;;;;6211492;23;20339;-95
2023/08/27 01:29:29;;;;;;;;;;;;;;;;;;6213737;23;20241;-95
2023/08/27 01:31:58;;;;;;;;;;;;;;;;;;6214275;23;19923;-95
2023/08/27 01:34:24;;;;;;;;;;;;;;;;;;6214474;23;19999;-95
2023/08/27 01:36:50;;;;;;;;;;;;;;;;;;6214686;23;19979;-95
2023/08/27 01:39:16;;;;;;;;;;;;;;;;;;6215960;23;20243;-95
2023/08/27 01:41:45;;;;;;;;;;;;;;;;;;6214428;23;19926;-95
2023/08/27 01:44:11;;;;;;;;;;;;;;;;;;6241160;23;19919;-95
2023/08/27 01:46:37;;;;;;;;;;;;;;;;;;6214629;23;19919;-95
2023/08/27 01:49:03;;;;;;;;;;;;;;;;;;6215298;23;20244;-94
2023/08/27 01:51:29;;;;;;;;;;;;;;;;;;6213898;23;20325;-95
2023/08/27 01:53:55;;;;;;;;;;;;;;;;;;6215412;23;19920;-95
2023/08/27 01:56:21;;;;;;;;;;;;;;;;;;6214027;23;19975;-95
2023/08/27 01:58:48;;;;;;;;;;;;;;;;;;6213967;23;19919;-95
2023/08/27 02:01:14;;;;;;;;;;;;;;;;;;6213911;23;19997;-95
2023/08/27 02:03:40;;;;;;;;;;;;;;;;;;6239283;23;19958;-95
2023/08/27 02:06:06;;;;;;;;;;;;;;;;;;6215285;23;19923;-95
2023/08/27 02:08:35;;;;;;;;;;;;;;;;;;6214543;23;19927;-95
2023/08/27 02:11:01;;;;;;;;;;;;;;;;;;6214965;23;19920;-95
2023/08/27 02:13:27;;;;;;;;;;;;;;;;;;6213649;23;19926;-95
2023/08/27 02:15:53;;;;;;;;;;;;;;;;;;6239889;23;19922;-95
2023/08/27 02:18:21;;;;;;;;;;;;;;;;;;6238976;23;19916;-94
2023/08/27 02:20:47;;;;;;;;;;;;;;;;;;6212694;23;19919;-95
2023/08/27 02:23:13;;;;;;;;;;;;;;;;;;6214562;23;19947;-95
2023/08/27 02:25:40;;;;;;;;;;;;;;;;;;6239123;22;19923;-95
2023/08/27 02:28:06;;;;;;;;;;;;;;;;;;6188394;23;19924;-95
2023/08/27 02:30:32;;;;;;;;;;;;;;;;;;6188536;23;19920;-95
2023/08/27 02:32:58;;;;;;;;;;;;;;;;;;6186894;23;19999;-94
2023/08/27 02:35:24;;;;;;;;;;;;;;;;;;6188705;23;19958;-95
2023/08/27 02:37:50;;;;;;;;;;;;;;;;;;6188041;23;20354;-96
2023/08/27 02:40:17;;;;;;;;;;;;;;;;;;6188559;23;19951;-95
2023/08/27 02:42:43;;;;;;;;;;;;;;;;;;6187869;23;19927;-95
2023/08/27 02:45:09;;;;;;;;;;;;;;;;;;6189943;23;20249;-95
2023/08/27 02:47:35;;;;;;;;;;;;;;;;;;6187313;23;19946;-95
2023/08/27 02:50:01;;;;;;;;;;;;;;;;;;6188538;23;20340;-95
2023/08/27 02:52:29;;;;;;;;;;;;;;;;;;6213549;23;19959;-95
2023/08/27 02:54:55;;;;;;;;;;;;;;;;;;6189248;23;19920;-95
2023/08/27 02:57:24;;;;;;;;;;;;;;;;;;6188136;23;20224;-95
2023/08/27 02:59:50;;;;;;;;;;;;;;;;;;6213488;23;19916;-95
2023/08/27 03:02:16;;;;;;;;;;;;;;;;;;6188702;23;20017;-95
2023/08/27 03:04:42;;;;;;;;;;;;;;;;;;6186423;23;20081;-94
2023/08/27 03:07:11;;;;;;;;;;;;;;;;;;6188011;23;20378;-95
2023/08/27 03:09:37;;;;;;;;;;;;;;;;;;6187965;23;20284;-94
2023/08/27 03:12:03;;;;;;;;;;;;;;;;;;6188126;23;19919;-94
2023/08/27 03:14:29;;;;;;;;;;;;;;;;;;6186236;23;19939;-94
2023/08/27 03:16:55;;;;;;;;;;;;;;;;;;6186422;23;19919;-95
2023/08/27 03:19:21;;;;;;;;;;;;;;;;;;6187001;23;19969;-95
2023/08/27 03:21:47;;;;;;;;;;;;;;;;;;6212435;23;19919;-95
2023/08/27 03:24:13;;;;;;;;;;;;;;;;;;6187028;23;19919;-95
2023/08/27 03:26:39;;;;;;;;;;;;;;;;;;6219829;22;20359;-95
2023/08/27 03:29:05;;;;;;;;;;;;;;;;;;6273652;22;19942;-95
2023/08/27 03:31:31;;;;;;;;;;;;;;;;;;6247189;22;19945;-95
2023/08/27 03:33:57;;;;;;;;;;;;;;;;;;6247746;22;19919;-95
2023/08/27 03:36:25;;;;;;;;;;;;;;;;;;6274633;22;19918;-95
2023/08/27 03:38:51;;;;;;;;;;;;;;;;;;6248386;22;19985;-94
2023/08/27 03:41:17;;;;;;;;;;;;;;;;;;6275047;22;19919;-95
2023/08/27 03:43:43;;;;;;;;;;;;;;;;;;6247683;22;20336;-95
2023/08/27 03:46:09;;;;;;;;;;;;;;;;;;6246934;22;19929;-94
2023/08/27 03:48:35;;;;;;;;;;;;;;;;;;6273221;22;19929;-94
2023/08/27 03:51:01;;;;;;;;;;;;;;;;;;6248197;22;20298;-95
2023/08/27 03:53:28;;;;;;;;;;;;;;;;;;6246932;22;19998;-95
2023/08/27 03:55:55;;;;;;;;;;;;;;;;;;6248061;22;19989;-95
2023/08/27 03:58:21;;;;;;;;;;;;;;;;;;6248257;22;19919;-95
2023/08/27 04:00:48;;;;;;;;;;;;;;;;;;6247479;22;19941;-94
2023/08/27 04:03:14;;;;;;;;;;;;;;;;;;6246738;22;20559;-95
2023/08/27 04:05:40;;;;;;;;;;;;;;;;;;6248156;22;20036;-95
2023/08/27 04:08:07;;;;;;;;;;;;;;;;;;6272437;22;19923;-95
2023/08/27 04:10:33;;;;;;;;;;;;;;;;;;6272282;22;19919;-95
2023/08/27 04:12:59;;;;;;;;;;;;;;;;;;6273121;22;19929;-94
2023/08/27 04:15:25;;;;;;;;;;;;;;;;;;6247766;22;19925;-95
2023/08/27 04:17:51;;;;;;;;;;;;;;;;;;6248140;22;19985;-95
2023/08/27 04:20:17;;;;;;;;;;;;;;;;;;6248135;22;19986;-95
2023/08/27 04:22:43;;;;;;;;;;;;;;;;;;6248000;22;19973;-95
2023/08/27 04:25:10;;;;;;;;;;;;;;;;;;6249122;22;19995;-95
2023/08/27 04:27:36;;;;;;;;;;;;;;;;;;6247774;22;20220;-95
2023/08/27 04:30:02;;;;;;;;;;;;;;;;;;6245560;22;20391;-95
2023/08/27 04:32:31;;;;;;;;;;;;;;;;;;6272237;22;20004;-95
2023/08/27 04:34:57;;;;;;;;;;;;;;;;;;6273801;22;20327;-95
2023/08/27 04:37:23;;;;;;;;;;;;;;;;;;6247158;22;20269;-95
2023/08/27 04:39:49;;;;;;;;;;;;;;;;;;6247295;22;19922;-95
2023/08/27 04:42:15;;;;;;;;;;;;;;;;;;6247728;22;19919;-95
2023/08/27 04:44:41;;;;;;;;;;;;;;;;;;6247117;22;19968;-95
2023/08/27 04:47:07;;;;;;;;;;;;;;;;;;6247830;22;19980;-95
2023/08/27 04:49:33;;;;;;;;;;;;;;;;;;6248002;22;20307;-95
2023/08/27 04:51:59;;;;;;;;;;;;;;;;;;6246973;22;19922;-96
2023/08/27 04:54:25;;;;;;;;;;;;;;;;;;6248648;22;19940;-95
2023/08/27 04:56:51;;;;;;;;;;;;;;;;;;6247702;22;19987;-95
2023/08/27 04:59:17;;;;;;;;;;;;;;;;;;6246935;22;19915;-95
2023/08/27 05:01:43;;;;;;;;;;;;;;;;;;6247554;22;20004;-95
2023/08/27 05:04:09;;;;;;;;;;;;;;;;;;6249724;22;19923;-95
2023/08/27 05:06:35;;;;;;;;;;;;;;;;;;6249888;22;19923;-95
2023/08/27 05:09:01;;;;;;;;;;;;;;;;;;6250189;22;19957;-95
2023/08/27 05:11:27;;;;;;;;;;;;;;;;;;6249346;22;19945;-95
2023/08/27 05:13:53;;;;;;;;;;;;;;;;;;6247995;22;19923;-93
2023/08/27 05:16:19;;;;;;;;;;;;;;;;;;6249711;22;20286;-95
2023/08/27 05:18:45;;;;;;;;;;;;;;;;;;6249156;22;19926;-94
2023/08/27 05:21:11;;;;;;;;;;;;;;;;;;6249167;22;19919;-95
2023/08/27 05:23:37;;;;;;;;;;;;;;;;;;6248161;22;19919;-95
2023/08/27 05:26:03;;;;;;;;;;;;;;;;;;6249721;22;19950;-95
2023/08/27 05:28:29;;;;;;;;;;;;;;;;;;6248237;22;19927;-95
2023/08/27 05:30:55;;;;;;;;;;;;;;;;;;6249376;22;19929;-94
2023/08/27 05:33:21;;;;;;;;;;;;;;;;;;6248494;22;20279;-95
2023/08/27 05:35:49;;;;;;;;;;;;;;;;;;6249693;22;19918;-95
2023/08/27 05:38:15;;;;;;;;;;;;;;;;;;6247115;22;19993;-95
2023/08/27 05:40:41;;;;;;;;;;;;;;;;;;6272900;22;20314;-95
2023/08/27 05:43:07;;;;;;;;;;;;;;;;;;6249332;22;20327;-95
2023/08/27 05:45:33;;;;;;;;;;;;;;;;;;6249047;22;19941;-96
2023/08/27 05:47:59;;;;;;;;;;;;;;;;;;6249012;22;19926;-95
2023/08/27 05:50:25;;;;;;;;;;;;;;;;;;6248937;22;20361;-95
2023/08/27 05:52:51;;;;;;;;;;;;;;;;;;6249352;22;19919;-95
2023/08/27 05:55:19;;;;;;;;;;;;;;;;;;6249108;22;19925;-95
2023/08/27 05:57:45;;;;;;;;;;;;;;;;;;6247675;22;19918;-95
2023/08/27 06:00:13;;;;;;;;;;;;;;;;;;6250471;22;19919;-95
2023/08/27 06:02:39;;;;;;;;;;;;;;;;;;6248526;22;20288;-95
2023/08/27 06:05:05;;;;;;;;;;;;;;;;;;6247020;22;19919;-95
2023/08/27 06:07:31;;;;;;;;;;;;;;;;;;6249442;22;19923;-95
2023/08/27 06:09:57;;;;;;;;;;;;;;;;;;6249991;22;19919;-94
2023/08/27 06:12:23;;;;;;;;;;;;;;;;;;6249002;22;19918;-95
2023/08/27 06:14:49;;;;;;;;;;;;;;;;;;6249973;22;19926;-95
2023/08/27 06:17:15;;;;;;;;;;;;;;;;;;6250069;22;19994;-95
2023/08/27 06:19:41;;;;;;;;;;;;;;;;;;6249484;22;19973;-95
2023/08/27 06:22:09;;;;;;;;;;;;;;;;;;6248810;22;19925;-94
2023/08/27 06:24:35;;;;;;;;;;;;;;;;;;6249033;22;19919;-95
2023/08/27 06:27:01;;;;;;;;;;;;;;;;;;6249685;22;19989;-95
2023/08/27 06:29:27;;;;;;;;;;;;;;;;;;6248783;22;19950;-95
2023/08/27 06:31:53;;;;;;;;;;;;;;;;;;6248151;22;19990;-94
2023/08/27 06:34:22;;;;;;;;;;;;;;;;;;6248574;22;20013;-95
2023/08/27 06:36:48;;;;;;;;;;;;;;;;;;6248040;22;19993;-94
2023/08/27 06:39:14;;;;;;;;;;;;;;;;;;6250135;22;19922;-95
2023/08/27 06:41:41;;;;;;;;;;;;;;;;;;6248955;22;19918;-95
2023/08/27 06:44:06;;;;;;;;;;;;;;;;;;6248708;22;19919;-95
2023/08/27 06:46:33;;;;;;;;;;;;;;;;;;6249092;22;19926;-95
2023/08/27 06:48:59;;;;;;;;;;;;;;;;;;6249515;22;19923;-96
2023/08/27 06:51:27;;;;;;;;;;;;;;;;;;6249956;22;20250;-95
2023/08/27 06:54:00;;;;;;;;;;;;;;;;;;6251659;22;19919;-96
2023/08/27 06:56:26;;;;;;;;;;;;;;;;;;6250199;22;20247;-95
2023/08/27 06:58:53;;;;;;;;;;;;;;;;;;6249167;22;19967;-95
2023/08/27 07:01:21;;;;;;;;;;;;;;;;;;6249147;22;19954;-95
2023/08/27 07:03:47;;;;;;;;;;;;;;;;;;6248290;22;20327;-95
2023/08/27 07:06:21;;;;;;;;;;;;;;;;;;6249234;22;19922;-96
2023/08/27 07:08:49;;;;;;;;;;;;;;;;;;6249121;22;19923;-96
2023/08/27 07:11:16;;;;;;;;;;;;;;;;;;6248760;22;19923;-95
2023/08/27 07:13:45;;;;;;;;;;;;;;;;;;6248255;22;19918;-95
2023/08/27 07:16:13;;;;;;;;;;;;;;;;;;6249418;22;19925;-96
2023/08/27 07:18:39;;;;;;;;;;;;;;;;;;6248912;22;19930;-96
2023/08/27 07:21:05;;;;;;;;;;;;;;;;;;6249394;22;20390;-95
2023/08/27 07:23:31;;;;;;;;;;;;;;;;;;6248564;22;20048;-96
2023/08/27 07:25:57;;;;;;;;;;;;;;;;;;6249583;22;19915;-96
2023/08/27 07:28:26;;;;;;;;;;;;;;;;;;6248792;22;19923;-96
2023/08/27 07:31:05;;;;;;;;;;;;;;;;;;;;;
2023/08/27 07:33:33;;;;;;;;;;;;;;;;;;6274723;22;19926;-95
2023/08/27 07:36:07;;;;;;;;;;;;;;;;;;6249593;22;19927;-96
2023/08/27 07:38:33;;;;;;;;;;;;;;;;;;6274058;22;20343;-96
2023/08/27 07:40:59;;;;;;;;;;;;;;;;;;6249696;22;20499;-96
2023/08/27 07:43:25;;;;;;;;;;;;;;;;;;6250769;22;20336;-96
2023/08/27 07:45:51;;;;;;;;;;;;;;;;;;6249224;22;19972;-95
2023/08/27 07:48:17;;;;;;;;;;;;;;;;;;6251597;22;19923;-96
2023/08/27 07:50:46;;;;;;;;;;;;;;;;;;6253605;22;19922;-96
2023/08/27 07:53:12;;;;;;;;;;;;;;;;;;6251551;22;19926;-96
2023/08/27 07:55:41;;;;;;;;;;;;;;;;;;6273123;22;19919;-96
2023/08/27 07:58:07;;;;;;;;;;;;;;;;;;6249023;22;19925;-96
2023/08/27 08:00:33;;;;;;;;;;;;;;;;;;6246723;22;19946;-96
2023/08/27 08:03:02;;;;;;;;;;;;;;;;;;6248795;22;19930;-96
2023/08/27 08:05:28;;;;;;;;;;;;;;;;;;6247100;22;20231;-94
2023/08/27 08:07:54;;;;;;;;;;;;;;;;;;6274639;22;19926;-96
2023/08/27 08:10:23;;;;;;;;;;;;;;;;;;6247399;22;19926;-96
2023/08/27 08:12:49;;;;;;;;;;;;;;;;;;6248828;22;19923;-96
2023/08/27 08:15:16;;;;;;;;;;;;;;;;;;6247571;22;19976;-95
2023/08/27 08:17:42;;;;;;;;;;;;;;;;;;6301020;22;19918;-95
2023/08/27 08:20:08;;;;;;;;;;;;;;;;;;6247424;22;19919;-96
2023/08/27 08:22:34;;;;;;;;;;;;;;;;;;6247206;22;19942;-95
2023/08/27 08:25:00;;;;;;;;;;;;;;;;;;6246723;22;20347;-96
2023/08/27 08:27:28;;;;;;;;;;;;;;;;;;6247536;22;19955;-95
2023/08/27 08:29:54;;;;;;;;;;;;;;;;;;6248424;22;19919;-95
2023/08/27 08:32:20;;;;;;;;;;;;;;;;;;6247538;22;20242;-96
2023/08/27 08:34:46;;;;;;;;;;;;;;;;;;6248141;22;19915;-95
2023/08/27 08:37:12;;;;;;;;;;;;;;;;;;6247839;22;19922;-94
2023/08/27 08:39:38;;;;;;;;;;;;;;;;;;6275263;22;19918;-96
2023/08/27 08:42:04;;;;;;;;;;;;;;;;;;6249192;22;19926;-95
2023/08/27 08:44:30;;;;;;;;;;;;;;;;;;6249227;22;19919;-95
2023/08/27 08:47:03;;;;;;;;;;;;;;;;;;6273699;22;20396;-95
2023/08/27 08:49:32;;;;;;;;;;;;;;;;;;6249966;22;19955;-95
2023/08/27 08:51:58;;;;;;;;;;;;;;;;;;6249497;22;19955;-94
2023/08/27 08:54:24;;;;;;;;;;;;;;;;;;6277395;22;19926;-95
2023/08/27 08:56:52;;;;;;;;;;;;;;;;;;6251574;22;19915;-94
2023/08/27 08:59:19;;;;;;;;;;;;;;;;;;6251623;22;19923;-95
2023/08/27 09:01:46;;;;;;;;;;;;;;;;;;6249426;22;19915;-94
2023/08/27 09:04:12;;;;;;;;;;;;;;;;;;6249983;22;19919;-95
2023/08/27 09:06:40;;;;;;;;;;;;;;;;;;6247945;22;20247;-95
2023/08/27 09:09:06;;;;;;;;;;;;;;;;;;6250115;22;20326;-95
2023/08/27 09:11:32;;;;;;;;;;;;;;;;;;6275582;22;19923;-94
2023/08/27 09:14:01;;;;;;;;;;;;;;;;;;6247366;22;19930;-94
2023/08/27 09:16:27;;;;;;;;;;;;;;;;;;6274602;22;20485;-95
2023/08/27 09:18:53;;;;;;;;;;;;;;;;;;6249006;22;19919;-94
2023/08/27 09:21:19;;;;;;;;;;;;;;;;;;6249101;22;20349;-94
2023/08/27 09:23:45;;;;;;;;;;;;;;;;;;6275792;22;19922;-95
2023/08/27 09:26:13;;;;;;;;;;;;;;;;;;6249559;22;20004;-95
2023/08/27 09:28:41;;;;;;;;;;;;;;;;;;6248786;22;19929;-95
2023/08/27 09:31:07;;;;;;;;;;;;;;;;;;6276537;22;19997;-94
2023/08/27 09:33:41;;;;;;;;;;;;;;;;;;6276348;22;19915;-94
2023/08/27 09:36:07;;;;;;;;;;;;;;;;;;6251539;22;20251;-94
2023/08/27 09:38:34;;;;;;;;;;;;;;;;;;6275154;22;19915;-95
2023/08/27 09:41:00;;;;;;;;;;;;;;;;;;6249996;22;19930;-95
2023/08/27 09:43:26;;;;;;;;;;;;;;;;;;6250052;22;20513;-94
2023/08/27 09:45:52;;;;;;;;;;;;;;;;;;6249297;22;20001;-94
2023/08/27 09:48:18;;;;;;;;;;;;;;;;;;6248883;22;19960;-94
2023/08/27 09:50:46;;;;;;;;;;;;;;;;;;6250388;22;19915;-95
2023/08/27 09:53:15;;;;;;;;;;;;;;;;;;6250563;22;19926;-95
2023/08/27 09:55:41;;;;;;;;;;;;;;;;;;6250284;22;20336;-94
2023/08/27 09:58:07;;;;;;;;;;;;;;;;;;6251329;22;20238;-95
2023/08/27 10:00:33;;;;;;;;;;;;;;;;;;6253301;22;19926;-96
2023/08/27 10:05:53;;;;;;;;;;;;;;;;;;6255442;22;19919;-95
2023/08/27 10:08:21;;;;;;;;;;;;;;;;;;6249373;22;19923;-95
2023/08/27 10:10:47;;;;;;;;;;;;;;;;;;6251523;22;19982;-95
2023/08/27 10:13:16;;;;;;;;;;;;;;;;;;6248020;22;20004;-95
2023/08/27 10:15:42;;;;;;;;;;;;;;;;;;6249685;22;19915;-93
2023/08/27 10:18:08;;;;;;;;;;;;;;;;;;6249213;22;19958;-96
2023/08/27 10:20:34;;;;;;;;;;;;;;;;;;6250424;22;19922;-95
2023/08/27 10:23:00;;;;;;;;;;;;;;;;;;6248713;22;19926;-95
2023/08/27 10:25:27;;;;;;;;;;;;;;;;;;6250689;22;19919;-94
2023/08/27 10:27:53;;;;;;;;;;;;;;;;;;6274106;22;19958;-96
2023/08/27 10:30:19;;;;;;;;;;;;;;;;;;6248811;22;19919;-95
2023/08/27 10:32:45;;;;;;;;;;;;;;;;;;6251020;22;19958;-96
2023/08/27 10:35:11;;;;;;;;;;;;;;;;;;6251392;22;19964;-96
2023/08/27 10:37:39;;;;;;;;;;;;;;;;;;6252273;22;19918;-95
2023/08/27 10:40:12;;;;;;;;;;;;;;;;;;6252658;22;19919;-95
2023/08/27 10:42:40;;;;;;;;;;;;;;;;;;6252783;22;19919;-96
2023/08/27 10:45:06;;;;;;;;;;;;;;;;;;6253031;22;19981;-96
2023/08/27 10:47:32;;;;;;;;;;;;;;;;;;6277133;22;19919;-94
2023/08/27 10:50:01;;;;;;;;;;;;;;;;;;6253300;22;20018;-95
2023/08/27 10:52:37;;;;;;;;;;;;;;;;;;;;;
2023/08/27 10:55:03;;;;;;;;;;;;;;;;;;6280630;22;20224;-95
2023/08/27 10:57:29;;;;;;;;;;;;;;;;;;6253477;22;19923;-95
2023/08/27 10:59:55;;;;;;;;;;;;;;;;;;6253521;22;20004;-95
2023/08/27 11:02:24;;;;;;;;;;;;;;;;;;6253173;22;19930;-96
2023/08/27 11:04:54;;;;;;;;;;;;;;;;;;6256012;22;19923;-95
2023/08/27 11:07:22;;;;;;;;;;;;;;;;;;6251222;22;20036;-96
2023/08/27 11:09:51;;;;;;;;;;;;;;;;;;6251935;22;19919;-94
2023/08/27 11:12:17;;;;;;;;;;;;;;;;;;6251918;22;19946;-95
2023/08/27 11:14:44;;;;;;;;;;;;;;;;;;6252292;22;19922;-95
2023/08/27 11:17:10;;;;;;;;;;;;;;;;;;6250819;22;20370;-96
2023/08/27 11:19:36;;;;;;;;;;;;;;;;;;6253044;22;19919;-95
2023/08/27 11:22:02;;;;;;;;;;;;;;;;;;6250031;22;19918;-95
2023/08/27 11:24:29;;;;;;;;;;;;;;;;;;6253688;22;19944;-95
2023/08/27 11:27:02;;;;;;;;;;;;;;;;;;6253988;22;19923;-95
2023/08/27 11:29:31;;;;;;;;;;;;;;;;;;6250810;22;20335;-94
2023/08/27 11:32:02;;;;;;;;;;;;;;;;;;6256004;22;19919;-95
2023/08/27 11:34:28;;;;;;;;;;;;;;;;;;6254456;22;19954;-95
2023/08/27 11:36:55;;;;;;;;;;;;;;;;;;6256979;22;19919;-95
2023/08/27 11:39:28;;;;;;;;;;;;;;;;;;6281028;22;20271;-96
2023/08/27 11:42:00;;;;;;;;;;;;;;;;;;6258179;22;19915;-95
2023/08/27 11:44:28;;;;;;;;;;;;;;;;;;6253824;22;19930;-95
2023/08/27 11:47:00;;;;;;;;;;;;;;;;;;6257353;22;19930;-96
2023/08/27 11:49:29;;;;;;;;;;;;;;;;;;6254710;22;20246;-95
2023/08/27 11:51:58;;;;;;;;;;;;;;;;;;6250148;22;19926;-95
2023/08/27 11:54:30;;;;;;;;;;;;;;;;;;6258220;22;19925;-95
2023/08/27 11:57:02;;;;;;;;;;;;;;;;;;6254379;22;19922;-95
2023/08/27 11:59:28;;;;;;;;;;;;;;;;;;6254524;22;19984;-94
2023/08/27 12:01:54;;;;;;;;;;;;;;;;;;6254208;22;20365;-95
2023/08/27 12:04:29;;;;;;;;;;;;;;;;;;6255861;22;20258;-95
2023/08/27 12:06:57;;;;;;;;;;;;;;;;;;6254900;22;19930;-95
2023/08/27 12:09:26;;;;;;;;;;;;;;;;;;6256383;22;19915;-95
2023/08/27 12:11:52;;;;;;;;;;;;;;;;;;6254103;22;20353;-95
2023/08/27 12:14:18;;;;;;;;;;;;;;;;;;6252655;22;19953;-96
2023/08/27 12:16:46;;;;;;;;;;;;;;;;;;6251533;22;19915;-96
2023/08/27 12:19:15;;;;;;;;;;;;;;;;;;6251438;22;19968;-94
2023/08/27 12:21:44;;;;;;;;;;;;;;;;;;6257103;22;19919;-95
2023/08/27 12:27:02;;;;;;;;;;;;;;;;;;6266418;22;19934;-96
2023/08/27 12:29:44;;;;;;;;;;;;;;;;;;6257073;22;19915;-96
2023/08/27 12:32:34;;;;;;;;;;;;;;;;;;6269275;22;19919;-96
2023/08/27 12:38:07;;;;;;;;;;;;;;;;;;6243181;22;19914;-96
2023/08/27 12:40:34;;;;;;;;;;;;;;;;;;6279636;22;19961;-96
2023/08/27 12:43:03;;;;;;;;;;;;;;;;;;6254277;22;19915;-96
2023/08/27 12:45:31;;;;;;;;;;;;;;;;;;6248240;22;20410;-96
2023/08/27 12:47:57;;;;;;;;;;;;;;;;;;6247626;22;19944;-96
2023/08/27 12:50:26;;;;;;;;;;;;;;;;;;6244100;22;19919;-96
2023/08/27 12:52:55;;;;;;;;;;;;;;;;;;6241745;22;20033;-95
2023/08/27 12:55:24;;;;;;;;;;;;;;;;;;6242916;22;19919;-96
2023/08/27 12:57:53;;;;;;;;;;;;;;;;;;6247887;22;19919;-96
2023/08/27 13:00:20;;;;;;;;;;;;;;;;;;6250589;22;20074;-94
2023/08/27 13:02:46;;;;;;;;;;;;;;;;;;6243947;22;19923;-94
2023/08/27 13:05:12;;;;;;;;;;;;;;;;;;6246559;22;20331;-94
2023/08/27 13:07:39;;;;;;;;;;;;;;;;;;6245601;22;19965;-94
2023/08/27 13:10:05;;;;;;;;;;;;;;;;;;6244932;22;19951;-94
2023/08/27 13:12:50;;;;;;;;;;;;;;;;;;;;;
2023/08/27 13:15:16;;;;;;;;;;;;;;;;;;6267406;22;19919;-96
2023/08/27 13:17:42;;;;;;;;;;;;;;;;;;6240230;22;20324;-95
2023/08/27 13:20:08;;;;;;;;;;;;;;;;;;6239880;22;20009;-95
2023/08/27 13:23:27;;;;;;;;;;;;;;;;;;;;;
2023/08/27 14:47:23;;;;;;;;;;;;;;;;;;6099381;23;19925;-86
2023/08/27 14:57:10;;;;;;;;;;;;;;;;;;;;;
2023/08/27 15:18:38;;;;;;;;;;;;;;;;;;6234404;22;20022;-90
2023/08/27 15:21:08;;;;;;;;;;;;;;;;;;6247600;22;19964;-91
2023/08/27 15:24:01;;;;;;;;;;;;;;;;;;6239669;22;19951;-91
2023/08/27 15:26:31;;;;;;;;;;;;;;;;;;6214382;22;19919;-91
2023/08/27 15:29:16;;;;;;;;;;;;;;;;;;;;;
2023/08/27 15:31:56;;;;;;;;;;;;;;;;;;6209145;23;20762;-92
2023/08/27 15:34:24;;;;;;;;;;;;;;;;;;6201222;23;20395;-93
2023/08/27 15:37:11;;;;;;;;;;;;;;;;;;6150909;23;19920;-91
2023/08/27 15:39:59;;;;;;;;;;;;;;;;;;6174676;23;19939;-91
2023/08/27 15:42:38;;;;;;;;;;;;;;;;;;6174772;23;19999;-91
2023/08/27 15:45:21;;;;;;;;;;;;;;;;;;;;;
2023/08/27 15:47:54;;;;;;;;;;;;;;;;;;6132495;23;19924;-92
2023/08/27 15:50:38;;;;;;;;;;;;;;;;;;6123141;23;19921;-90
2023/08/27 15:53:17;;;;;;;;;;;;;;;;;;6137911;23;20053;-91
2023/08/27 15:56:04;;;;;;;;;;;;;;;;;;6093137;23;19925;-91
2023/08/27 15:58:33;;;;;;;;;;;;;;;;;;6092066;23;19928;-91
2023/08/27 16:01:25;;;;;;;;;;;;;;;;;;6113806;23;20060;-91
2023/08/27 16:03:52;;;;;;;;;;;;;;;;;;6088489;23;19943;-91
2023/08/27 16:06:19;;;;;;;;;;;;;;;;;;6114043;23;19956;-91
2023/08/27 16:09:03;;;;;;;;;;;;;;;;;;6124571;23;20329;-91
2023/08/27 16:14:27;;;;;;;;;;;;;;;;;;6071638;23;20089;-90
2023/08/27 16:17:16;;;;;;;;;;;;;;;;;;;;;
2023/08/27 16:19:46;;;;;;;;;;;;;;;;;;6111750;23;19921;-91
2023/08/27 16:22:12;;;;;;;;;;;;;;;;;;6059300;23;19976;-91
2023/08/27 16:24:48;;;;;;;;;;;;;;;;;;6088451;23;19964;-92
2023/08/27 16:27:27;;;;;;;;;;;;;;;;;;6107087;23;19979;-91
2023/08/27 16:30:05;;;;;;;;;;;;;;;;;;;;;
2023/08/27 16:32:53;;;;;;;;;;;;;;;;;;6082337;23;19964;-91
2023/08/27 16:35:38;;;;;;;;;;;;;;;;;;6115155;23;20284;-92
2023/08/27 16:41:09;;;;;;;;;;;;;;;;;;6146763;23;20500;-91
2023/08/27 16:44:06;;;;;;;;;;;;;;;;;;6137227;23;20464;-91
2023/08/27 16:47:04;;;;;;;;;;;;;;;;;;6136081;23;19975;-91
2023/08/27 16:49:37;;;;;;;;;;;;;;;;;;6088082;23;20301;-91
2023/08/27 16:52:08;;;;;;;;;;;;;;;;;;6118962;23;19943;-91
2023/08/27 16:54:56;;;;;;;;;;;;;;;;;;6115758;23;20301;-91
2023/08/27 16:57:33;;;;;;;;;;;;;;;;;;6119565;23;20431;-90
2023/08/27 17:00:06;;;;;;;;;;;;;;;;;;6120428;23;19954;-91
2023/08/27 17:02:35;;;;;;;;;;;;;;;;;;6147760;23;19921;-91
2023/08/27 17:05:11;;;;;;;;;;;;;;;;;;6122198;23;20376;-92
2023/08/27 17:07:48;;;;;;;;;;;;;;;;;;;;;
2023/08/27 17:10:21;;;;;;;;;;;;;;;;;;6129125;23;19927;-91
2023/08/27 17:12:58;;;;;;;;;;;;;;;;;;6183419;23;19962;-91
2023/08/27 17:15:27;;;;;;;;;;;;;;;;;;6181535;23;19919;-92
2023/08/27 17:18:10;;;;;;;;;;;;;;;;;;6208103;23;20429;-92
2023/08/27 17:20:47;;;;;;;;;;;;;;;;;;;;;
2023/08/27 17:23:22;;;;;;;;;;;;;;;;;;6249943;22;19953;-91
2023/08/27 17:25:52;;;;;;;;;;;;;;;;;;6217553;22;19930;-92
2023/08/27 17:28:39;;;;;;;;;;;;;;;;;;;;;
2023/08/27 17:31:19;;;;;;;;;;;;;;;;;;6216752;22;19926;-91
2023/08/27 17:33:57;;;;;;;;;;;;;;;;;;;;;
2023/08/27 17:36:37;;;;;;;;;;;;;;;;;;;;;
2023/08/27 17:39:28;;;;;;;;;;;;;;;;;;6268836;22;19996;-91
2023/08/27 17:45:03;;;;;;;;;;;;;;;;;;6207262;23;19919;-89
2023/08/27 17:47:31;;;;;;;;;;;;;;;;;;6182440;23;19923;-90
2023/08/27 17:50:03;;;;;;;;;;;;;;;;;;6157357;23;20605;-91
2023/08/27 17:52:36;;;;;;;;;;;;;;;;;;6156558;23;19994;-89
2023/08/27 17:55:11;;;;;;;;;;;;;;;;;;6151931;23;19924;-89
2023/08/27 17:57:49;;;;;;;;;;;;;;;;;;6179191;23;19915;-90
2023/08/27 18:00:16;;;;;;;;;;;;;;;;;;6180698;23;19916;-90
2023/08/27 18:02:44;;;;;;;;;;;;;;;;;;6157107;23;19927;-91
2023/08/27 18:05:11;;;;;;;;;;;;;;;;;;6180836;23;19924;-91
2023/08/27 18:07:41;;;;;;;;;;;;;;;;;;6157666;23;19931;-92
2023/08/27 18:10:23;;;;;;;;;;;;;;;;;;6184668;23;19934;-92
2023/08/27 18:12:55;;;;;;;;;;;;;;;;;;6160062;23;19953;-92
2023/08/27 18:15:23;;;;;;;;;;;;;;;;;;6197515;22;19969;-92
2023/08/27 18:17:50;;;;;;;;;;;;;;;;;;6244480;22;19989;-92
2023/08/27 18:20:19;;;;;;;;;;;;;;;;;;6250552;22;19943;-92
2023/08/27 18:22:51;;;;;;;;;;;;;;;;;;6208640;23;19926;-93
2023/08/27 18:25:25;;;;;;;;;;;;;;;;;;6205287;23;19947;-92
2023/08/27 18:27:52;;;;;;;;;;;;;;;;;;6183380;23;19920;-93
2023/08/27 18:30:31;;;;;;;;;;;;;;;;;;6183615;23;19923;-92
2023/08/27 18:33:08;;;;;;;;;;;;;;;;;;6203857;23;20336;-93
2023/08/27 18:35:41;;;;;;;;;;;;;;;;;;6180573;23;20325;-92
2023/08/27 18:38:17;;;;;;;;;;;;;;;;;;;;;
2023/08/27 18:40:51;;;;;;;;;;;;;;;;;;6127152;23;19971;-92
2023/08/27 18:43:21;;;;;;;;;;;;;;;;;;6205172;23;19920;-92
2023/08/27 18:46:04;;;;;;;;;;;;;;;;;;6202426;23;19919;-92
2023/08/27 18:48:41;;;;;;;;;;;;;;;;;;;;;
2023/08/27 18:51:10;;;;;;;;;;;;;;;;;;6201100;23;20409;-91
2023/08/27 18:53:41;;;;;;;;;;;;;;;;;;6153571;23;20830;-92
2023/08/27 18:56:26;;;;;;;;;;;;;;;;;;6178365;23;19920;-91
2023/08/27 18:59:02;;;;;;;;;;;;;;;;;;;;;
2023/08/27 19:01:33;;;;;;;;;;;;;;;;;;6176895;23;19927;-92
2023/08/27 19:04:01;;;;;;;;;;;;;;;;;;6173797;23;19954;-92
2023/08/27 19:06:28;;;;;;;;;;;;;;;;;;6152502;23;19924;-91
2023/08/27 19:09:15;;;;;;;;;;;;;;;;;;;;;
2023/08/27 19:11:44;;;;;;;;;;;;;;;;;;6170277;23;19920;-92
2023/08/27 19:14:13;;;;;;;;;;;;;;;;;;6153598;23;19970;-92
2023/08/27 19:22:36;;;;;;;;;;;;;;;;;;6168849;23;19924;-92